sensor_id;sensor_type;location;lat;lon;timestamp;P1;durP1;ratioP1;P2;durP2;ratioP2
28070;SDS011;15383;48.408;9.968;2023-09-12T03:01:18;9.82;;;5.28;;
28070;SDS011;15383;48.408;9.968;2023-09-12T03:03:48;13.45;;;5.35;;
28070;SDS011;15383;48.408;9.968;2023-09-12T03:06:14;15.10;;;5.40;;
28070;SDS011;15383;48.408;9.968;2023-09-12T03:08:40;16.55;;;6.50;;
28070;SDS011;15383;48.408;9.968;2023-09-12T03:11:06;11.43;;;5.07;;
28070;SDS011;15383;48.408;9.968;2023-09-12T03:13:36;15.07;;;5.38;;
28070;SDS011;15383;48.408;9.968;2023-09-12T03:16:02;13.35;;;5.50;;
28070;SDS011;15383;48.408;9.968;2023-09-12T03:18:28;9.18;;;5.28;;
28070;SDS011;15383;48.408;9.968;2023-09-12T03:20:54;11.75;;;5.63;;
28070;SDS011;15383;48.408;9.968;2023-09-12T03:23:20;12.98;;;5.75;;
28070;SDS011;15383;48.408;9.968;2023-09-12T03:25:46;9.07;;;5.15;;
28070;SDS011;15383;48.408;9.968;2023-09-12T03:28:11;16.90;;;4.88;;
28070;SDS011;15383;48.408;9.968;2023-09-12T03:30:37;9.85;;;5.18;;
28070;SDS011;15383;48.408;9.968;2023-09-12T03:33:03;12.15;;;5.53;;
28070;SDS011;15383;48.408;9.968;2023-09-12T03:35:31;11.52;;;5.35;;
28070;SDS011;15383;48.408;9.968;2023-09-12T03:37:57;8.20;;;4.88;;
28070;SDS011;15383;48.408;9.968;2023-09-12T03:40:23;15.55;;;5.80;;
28070;SDS011;15383;48.408;9.968;2023-09-12T03:42:48;11.73;;;5.32;;
28070;SDS011;15383;48.408;9.968;2023-09-12T03:45:14;16.80;;;5.43;;
28070;SDS011;15383;48.408;9.968;2023-09-12T03:47:40;12.98;;;5.55;;
28070;SDS011;15383;48.408;9.968;2023-09-12T03:50:05;8.82;;;5.00;;
28070;SDS011;15383;48.408;9.968;2023-09-12T03:52:31;12.82;;;5.32;;
28070;SDS011;15383;48.408;9.968;2023-09-12T03:54:57;16.15;;;5.35;;
28070;SDS011;15383;48.408;9.968;2023-09-12T03:57:25;11.02;;;5.13;;
28070;SDS011;15383;48.408;9.968;2023-09-12T03:59:51;12.57;;;5.72;;
28070;SDS011;15383;48.408;9.968;2023-09-12T04:02:17;10.93;;;4.82;;
28070;SDS011;15383;48.408;9.968;2023-09-12T04:04:43;13.80;;;5.40;;
28070;SDS011;15383;48.408;9.968;2023-09-12T04:07:09;13.43;;;5.20;;
28070;SDS011;15383;48.408;9.968;2023-09-12T04:09:34;10.52;;;4.95;;
28070;SDS011;15383;48.408;9.968;2023-09-12T04:12:00;15.65;;;5.38;;
28070;SDS011;15383;48.408;9.968;2023-09-12T04:14:26;15.32;;;5.40;;
28070;SDS011;15383;48.408;9.968;2023-09-12T04:16:52;9.15;;;5.43;;
28070;SDS011;15383;48.408;9.968;2023-09-12T04:19:17;14.38;;;5.35;;
28070;SDS011;15383;48.408;9.968;2023-09-12T04:21:43;11.63;;;5.35;;
28070;SDS011;15383;48.408;9.968;2023-09-12T04:24:11;16.85;;;5.35;;
28070;SDS011;15383;48.408;9.968;2023-09-12T04:26:37;15.23;;;5.18;;
28070;SDS011;15383;48.408;9.968;2023-09-12T04:29:02;15.15;;;4.95;;
28070;SDS011;15383;48.408;9.968;2023-09-12T04:31:28;15.38;;;5.25;;
28070;SDS011;15383;48.408;9.968;2023-09-12T04:33:54;11.30;;;5.43;;
28070;SDS011;15383;48.408;9.968;2023-09-12T04:36:20;9.68;;;5.47;;
28070;SDS011;15383;48.408;9.968;2023-09-12T04:38:46;13.88;;;6.00;;
28070;SDS011;15383;48.408;9.968;2023-09-12T04:41:11;13.52;;;5.70;;
28070;SDS011;15383;48.408;9.968;2023-09-12T04:43:41;10.02;;;5.28;;
28070;SDS011;15383;48.408;9.968;2023-09-12T04:46:10;16.65;;;5.80;;
28070;SDS011;15383;48.408;9.968;2023-09-12T04:48:37;18.63;;;6.03;;
28070;SDS011;15383;48.408;9.968;2023-09-12T04:51:03;15.73;;;5.85;;
28070;SDS011;15383;48.408;9.968;2023-09-12T04:53:29;13.32;;;4.85;;
28070;SDS011;15383;48.408;9.968;2023-09-12T04:56:03;20.25;;;5.75;;
28070;SDS011;15383;48.408;9.968;2023-09-12T04:58:29;16.08;;;5.43;;
28070;SDS011;15383;48.408;9.968;2023-09-12T05:00:55;14.02;;;5.75;;
28070;SDS011;15383;48.408;9.968;2023-09-12T05:03:24;9.32;;;4.90;;
28070;SDS011;15383;48.408;9.968;2023-09-12T05:05:50;11.60;;;5.50;;
28070;SDS011;15383;48.408;9.968;2023-09-12T05:08:17;11.98;;;5.65;;
28070;SDS011;15383;48.408;9.968;2023-09-12T05:10:45;11.60;;;5.68;;
28070;SDS011;15383;48.408;9.968;2023-09-12T05:13:11;11.82;;;5.53;;
28070;SDS011;15383;48.408;9.968;2023-09-12T05:15:37;10.98;;;4.70;;
28070;SDS011;15383;48.408;9.968;2023-09-12T05:18:04;9.50;;;4.95;;
28070;SDS011;15383;48.408;9.968;2023-09-12T05:20:31;9.35;;;5.20;;
28070;SDS011;15383;48.408;9.968;2023-09-12T05:22:57;9.77;;;5.45;;
28070;SDS011;15383;48.408;9.968;2023-09-12T05:25:23;13.02;;;5.25;;
28070;SDS011;15383;48.408;9.968;2023-09-12T05:27:48;12.85;;;5.20;;
28070;SDS011;15383;48.408;9.968;2023-09-12T05:30:14;21.38;;;5.95;;
28070;SDS011;15383;48.408;9.968;2023-09-12T05:32:40;17.08;;;5.63;;
28070;SDS011;15383;48.408;9.968;2023-09-12T05:35:06;16.52;;;5.25;;
28070;SDS011;15383;48.408;9.968;2023-09-12T05:37:32;18.67;;;5.80;;
28070;SDS011;15383;48.408;9.968;2023-09-12T05:39:58;13.18;;;5.97;;
28070;SDS011;15383;48.408;9.968;2023-09-12T05:42:23;9.05;;;5.30;;
28070;SDS011;15383;48.408;9.968;2023-09-12T05:44:51;13.05;;;5.35;;
28070;SDS011;15383;48.408;9.968;2023-09-12T05:47:18;11.90;;;5.35;;
28070;SDS011;15383;48.408;9.968;2023-09-12T05:49:44;8.32;;;5.22;;
28070;SDS011;15383;48.408;9.968;2023-09-12T05:52:10;9.95;;;5.47;;
28070;SDS011;15383;48.408;9.968;2023-09-12T05:54:36;14.88;;;5.20;;
28070;SDS011;15383;48.408;9.968;2023-09-12T05:57:02;7.97;;;4.95;;
28070;SDS011;15383;48.408;9.968;2023-09-12T05:59:28;13.35;;;5.55;;
28070;SDS011;15383;48.408;9.968;2023-09-12T06:01:53;18.70;;;5.30;;
28070;SDS011;15383;48.408;9.968;2023-09-12T06:04:20;9.57;;;5.45;;
28070;SDS011;15383;48.408;9.968;2023-09-12T06:06:46;14.00;;;6.15;;
28070;SDS011;15383;48.408;9.968;2023-09-12T06:09:12;10.15;;;5.53;;
28070;SDS011;15383;48.408;9.968;2023-09-12T06:11:37;12.80;;;4.45;;
28070;SDS011;15383;48.408;9.968;2023-09-12T06:14:03;12.63;;;5.40;;
28070;SDS011;15383;48.408;9.968;2023-09-12T06:16:29;17.55;;;6.65;;
28070;SDS011;15383;48.408;9.968;2023-09-12T06:18:55;16.02;;;5.63;;
28070;SDS011;15383;48.408;9.968;2023-09-12T06:21:21;12.95;;;6.03;;
28070;SDS011;15383;48.408;9.968;2023-09-12T06:24:20;11.63;;;5.63;;
28070;SDS011;15383;48.408;9.968;2023-09-12T06:26:40;11.50;;;6.18;;
28070;SDS011;15383;48.408;9.968;2023-09-12T06:29:06;13.55;;;5.25;;
28070;SDS011;15383;48.408;9.968;2023-09-12T06:31:32;12.05;;;6.03;;
28070;SDS011;15383;48.408;9.968;2023-09-12T06:33:57;15.10;;;6.38;;
28070;SDS011;15383;48.408;9.968;2023-09-12T06:36:26;15.02;;;6.40;;
28070;SDS011;15383;48.408;9.968;2023-09-12T06:38:54;19.27;;;7.25;;
28070;SDS011;15383;48.408;9.968;2023-09-12T06:41:20;15.15;;;6.90;;
28070;SDS011;15383;48.408;9.968;2023-09-12T06:43:46;16.50;;;5.90;;
28070;SDS011;15383;48.408;9.968;2023-09-12T06:46:12;13.43;;;6.85;;
28070;SDS011;15383;48.408;9.968;2023-09-12T06:48:38;17.52;;;6.72;;
28070;SDS011;15383;48.408;9.968;2023-09-12T06:51:08;12.88;;;6.40;;
28070;SDS011;15383;48.408;9.968;2023-09-12T06:53:34;18.27;;;6.35;;
28070;SDS011;15383;48.408;9.968;2023-09-12T06:56:02;13.00;;;6.95;;
28070;SDS011;15383;48.408;9.968;2023-09-12T06:58:28;22.70;;;7.18;;
28070;SDS011;15383;48.408;9.968;2023-09-12T07:00:53;26.00;;;7.55;;
28070;SDS011;15383;48.408;9.968;2023-09-12T07:03:19;14.57;;;6.57;;
28070;SDS011;15383;48.408;9.968;2023-09-12T07:05:45;17.00;;;7.13;;
28070;SDS011;15383;48.408;9.968;2023-09-12T07:08:10;20.30;;;7.47;;
28070;SDS011;15383;48.408;9.968;2023-09-12T07:10:36;17.92;;;7.03;;
28070;SDS011;15383;48.408;9.968;2023-09-12T07:13:02;13.77;;;7.68;;
28070;SDS011;15383;48.408;9.968;2023-09-12T07:15:28;15.65;;;6.63;;
28070;SDS011;15383;48.408;9.968;2023-09-12T07:17:54;22.20;;;7.45;;
28070;SDS011;15383;48.408;9.968;2023-09-12T07:20:21;12.15;;;5.97;;
28070;SDS011;15383;48.408;9.968;2023-09-12T07:22:47;14.35;;;7.20;;
28070;SDS011;15383;48.408;9.968;2023-09-12T07:25:13;14.13;;;7.15;;
28070;SDS011;15383;48.408;9.968;2023-09-12T07:27:39;13.77;;;7.13;;
28070;SDS011;15383;48.408;9.968;2023-09-12T07:30:05;13.60;;;6.22;;
28070;SDS011;15383;48.408;9.968;2023-09-12T07:32:31;17.35;;;7.00;;
28070;SDS011;15383;48.408;9.968;2023-09-12T07:34:57;20.55;;;7.72;;
28070;SDS011;15383;48.408;9.968;2023-09-12T07:37:23;14.15;;;7.82;;
28070;SDS011;15383;48.408;9.968;2023-09-12T07:39:48;16.02;;;7.82;;
28070;SDS011;15383;48.408;9.968;2023-09-12T07:42:14;18.52;;;6.25;;
28070;SDS011;15383;48.408;9.968;2023-09-12T07:44:40;13.20;;;7.53;;
28070;SDS011;15383;48.408;9.968;2023-09-12T07:47:06;11.82;;;6.70;;
28070;SDS011;15383;48.408;9.968;2023-09-12T07:49:32;14.02;;;7.43;;
28070;SDS011;15383;48.408;9.968;2023-09-12T07:51:57;16.10;;;7.40;;
28070;SDS011;15383;48.408;9.968;2023-09-12T07:54:23;12.93;;;7.63;;
28070;SDS011;15383;48.408;9.968;2023-09-12T07:56:49;17.67;;;6.93;;
28070;SDS011;15383;48.408;9.968;2023-09-12T07:59:14;18.88;;;8.15;;
28070;SDS011;15383;48.408;9.968;2023-09-12T08:01:40;12.45;;;7.50;;
28070;SDS011;15383;48.408;9.968;2023-09-12T08:04:06;15.50;;;7.13;;
28070;SDS011;15383;48.408;9.968;2023-09-12T08:06:32;16.67;;;7.18;;
28070;SDS011;15383;48.408;9.968;2023-09-12T08:08:57;15.88;;;7.38;;
28070;SDS011;15383;48.408;9.968;2023-09-12T08:11:23;17.73;;;8.30;;
28070;SDS011;15383;48.408;9.968;2023-09-12T08:13:49;21.42;;;8.40;;
28070;SDS011;15383;48.408;9.968;2023-09-12T08:16:15;14.98;;;6.70;;
28070;SDS011;15383;48.408;9.968;2023-09-12T08:18:41;20.17;;;9.38;;
28070;SDS011;15383;48.408;9.968;2023-09-12T08:21:07;22.30;;;8.25;;
28070;SDS011;15383;48.408;9.968;2023-09-12T08:23:32;17.08;;;7.97;;
28070;SDS011;15383;48.408;9.968;2023-09-12T08:25:58;12.35;;;7.00;;
28070;SDS011;15383;48.408;9.968;2023-09-12T08:28:24;14.70;;;6.95;;
28070;SDS011;15383;48.408;9.968;2023-09-12T08:30:50;15.88;;;7.80;;
28070;SDS011;15383;48.408;9.968;2023-09-12T08:33:15;15.45;;;6.75;;
28070;SDS011;15383;48.408;9.968;2023-09-12T08:35:41;13.93;;;6.85;;
28070;SDS011;15383;48.408;9.968;2023-09-12T08:38:07;11.48;;;7.53;;
28070;SDS011;15383;48.408;9.968;2023-09-12T08:40:33;15.35;;;6.80;;
28070;SDS011;15383;48.408;9.968;2023-09-12T08:43:00;19.45;;;7.25;;
28070;SDS011;15383;48.408;9.968;2023-09-12T08:45:28;13.57;;;7.68;;
28070;SDS011;15383;48.408;9.968;2023-09-12T08:47:56;12.93;;;6.07;;
28070;SDS011;15383;48.408;9.968;2023-09-12T08:50:25;17.67;;;7.65;;
28070;SDS011;15383;48.408;9.968;2023-09-12T08:52:53;13.13;;;7.65;;
28070;SDS011;15383;48.408;9.968;2023-09-12T08:55:19;15.88;;;7.22;;
28070;SDS011;15383;48.408;9.968;2023-09-12T08:57:46;16.08;;;7.75;;
28070;SDS011;15383;48.408;9.968;2023-09-12T09:02:41;22.73;;;8.38;;
28070;SDS011;15383;48.408;9.968;2023-09-12T09:05:08;15.05;;;7.65;;
28070;SDS011;15383;48.408;9.968;2023-09-12T09:07:36;19.33;;;7.57;;
28070;SDS011;15383;48.408;9.968;2023-09-12T09:10:03;13.02;;;6.95;;
28070;SDS011;15383;48.408;9.968;2023-09-12T09:12:31;17.52;;;7.32;;
28070;SDS011;15383;48.408;9.968;2023-09-12T09:14:57;12.48;;;7.38;;
28070;SDS011;15383;48.408;9.968;2023-09-12T09:17:23;14.20;;;7.50;;
28070;SDS011;15383;48.408;9.968;2023-09-12T09:19:49;16.75;;;7.28;;
28070;SDS011;15383;48.408;9.968;2023-09-12T09:22:14;17.77;;;7.57;;
28070;SDS011;15383;48.408;9.968;2023-09-12T09:24:41;14.40;;;7.85;;
28070;SDS011;15383;48.408;9.968;2023-09-12T09:27:06;14.18;;;7.70;;
28070;SDS011;15383;48.408;9.968;2023-09-12T09:29:32;15.80;;;7.63;;
28070;SDS011;15383;48.408;9.968;2023-09-12T09:32:16;26.88;;;8.40;;
28070;SDS011;15383;48.408;9.968;2023-09-12T09:34:43;18.35;;;8.60;;
28070;SDS011;15383;48.408;9.968;2023-09-12T09:37:08;13.93;;;7.28;;
28070;SDS011;15383;48.408;9.968;2023-09-12T09:39:34;10.25;;;6.90;;
28070;SDS011;15383;48.408;9.968;2023-09-12T09:42:00;16.73;;;7.78;;
28070;SDS011;15383;48.408;9.968;2023-09-12T09:44:26;16.40;;;7.38;;
28070;SDS011;15383;48.408;9.968;2023-09-12T09:46:59;16.73;;;7.40;;
28070;SDS011;15383;48.408;9.968;2023-09-12T09:49:27;18.80;;;7.47;;
28070;SDS011;15383;48.408;9.968;2023-09-12T09:51:55;10.68;;;7.70;;
28070;SDS011;15383;48.408;9.968;2023-09-12T09:54:23;10.52;;;6.95;;
28070;SDS011;15383;48.408;9.968;2023-09-12T09:56:53;14.45;;;7.13;;
28070;SDS011;15383;48.408;9.968;2023-09-12T09:59:26;17.63;;;6.93;;
28070;SDS011;15383;48.408;9.968;2023-09-12T10:01:56;19.73;;;7.22;;
28070;SDS011;15383;48.408;9.968;2023-09-12T10:04:23;12.52;;;6.72;;
28070;SDS011;15383;48.408;9.968;2023-09-12T10:06:51;15.10;;;7.63;;
28070;SDS011;15383;48.408;9.968;2023-09-12T10:09:19;16.67;;;8.13;;
28070;SDS011;15383;48.408;9.968;2023-09-12T10:11:47;14.02;;;7.80;;
28070;SDS011;15383;48.408;9.968;2023-09-12T10:14:16;13.93;;;7.32;;
28070;SDS011;15383;48.408;9.968;2023-09-12T10:16:45;19.05;;;7.90;;
28070;SDS011;15383;48.408;9.968;2023-09-12T10:19:17;14.32;;;7.35;;
28070;SDS011;15383;48.408;9.968;2023-09-12T10:24:47;19.05;;;7.68;;
28070;SDS011;15383;48.408;9.968;2023-09-12T10:27:15;12.93;;;7.32;;
28070;SDS011;15383;48.408;9.968;2023-09-12T10:29:43;12.55;;;7.50;;
28070;SDS011;15383;48.408;9.968;2023-09-12T10:32:12;8.40;;;6.63;;
28070;SDS011;15383;48.408;9.968;2023-09-12T10:34:39;10.98;;;7.40;;
28070;SDS011;15383;48.408;9.968;2023-09-12T10:37:10;10.57;;;6.30;;
28070;SDS011;15383;48.408;9.968;2023-09-12T10:39:40;11.48;;;6.55;;
28070;SDS011;15383;48.408;9.968;2023-09-12T10:42:08;12.93;;;7.47;;
28070;SDS011;15383;48.408;9.968;2023-09-12T10:44:34;15.77;;;6.75;;
28070;SDS011;15383;48.408;9.968;2023-09-12T10:47:00;12.95;;;6.38;;
28070;SDS011;15383;48.408;9.968;2023-09-12T10:49:28;15.27;;;6.97;;
28070;SDS011;15383;48.408;9.968;2023-09-12T10:51:57;21.88;;;7.85;;
28070;SDS011;15383;48.408;9.968;2023-09-12T10:54:24;12.63;;;7.43;;
28070;SDS011;15383;48.408;9.968;2023-09-12T10:57:08;15.65;;;7.53;;
28070;SDS011;15383;48.408;9.968;2023-09-12T11:02:38;9.48;;;6.45;;
28070;SDS011;15383;48.408;9.968;2023-09-12T11:05:06;14.18;;;6.85;;
28070;SDS011;15383;48.408;9.968;2023-09-12T11:07:51;23.85;;;6.72;;
28070;SDS011;15383;48.408;9.968;2023-09-12T11:10:22;9.43;;;5.47;;
28070;SDS011;15383;48.408;9.968;2023-09-12T11:12:49;10.35;;;6.03;;
28070;SDS011;15383;48.408;9.968;2023-09-12T11:15:16;15.50;;;6.45;;
28070;SDS011;15383;48.408;9.968;2023-09-12T11:17:46;11.65;;;5.75;;
28070;SDS011;15383;48.408;9.968;2023-09-12T11:20:13;13.57;;;6.60;;
28070;SDS011;15383;48.408;9.968;2023-09-12T11:22:41;14.13;;;6.82;;
28070;SDS011;15383;48.408;9.968;2023-09-12T11:30:25;12.32;;;5.82;;
28070;SDS011;15383;48.408;9.968;2023-09-12T11:32:51;9.05;;;6.18;;
28070;SDS011;15383;48.408;9.968;2023-09-12T11:35:28;10.57;;;6.05;;
28070;SDS011;15383;48.408;9.968;2023-09-12T11:37:58;9.55;;;6.35;;
28070;SDS011;15383;48.408;9.968;2023-09-12T11:42:59;24.05;;;7.28;;
28070;SDS011;15383;48.408;9.968;2023-09-12T11:45:25;11.65;;;6.45;;
28070;SDS011;15383;48.408;9.968;2023-09-12T11:47:53;13.95;;;6.93;;
28070;SDS011;15383;48.408;9.968;2023-09-12T11:50:31;15.60;;;6.28;;
28070;SDS011;15383;48.408;9.968;2023-09-12T11:53:02;14.73;;;7.05;;
28070;SDS011;15383;48.408;9.968;2023-09-12T11:55:33;17.80;;;6.63;;
28070;SDS011;15383;48.408;9.968;2023-09-12T11:58:01;18.48;;;7.20;;
28070;SDS011;15383;48.408;9.968;2023-09-12T12:00:28;12.05;;;6.65;;
28070;SDS011;15383;48.408;9.968;2023-09-12T12:02:54;11.32;;;6.97;;
28070;SDS011;15383;48.408;9.968;2023-09-12T12:05:20;14.82;;;6.53;;
28070;SDS011;15383;48.408;9.968;2023-09-12T12:07:47;14.02;;;6.40;;
28070;SDS011;15383;48.408;9.968;2023-09-12T12:10:13;11.25;;;5.85;;
28070;SDS011;15383;48.408;9.968;2023-09-12T12:12:39;11.63;;;6.32;;
28070;SDS011;15383;48.408;9.968;2023-09-12T12:15:10;12.45;;;6.53;;
28070;SDS011;15383;48.408;9.968;2023-09-12T12:17:42;7.38;;;6.10;;
28070;SDS011;15383;48.408;9.968;2023-09-12T12:20:08;14.30;;;6.10;;
28070;SDS011;15383;48.408;9.968;2023-09-12T12:22:36;16.88;;;6.78;;
28070;SDS011;15383;48.408;9.968;2023-09-12T12:25:06;7.78;;;5.25;;
28070;SDS011;15383;48.408;9.968;2023-09-12T12:27:38;12.07;;;6.15;;
28070;SDS011;15383;48.408;9.968;2023-09-12T12:30:06;9.00;;;5.95;;
28070;SDS011;15383;48.408;9.968;2023-09-12T12:32:40;12.77;;;6.30;;
28070;SDS011;15383;48.408;9.968;2023-09-12T12:35:07;19.45;;;7.53;;
28070;SDS011;15383;48.408;9.968;2023-09-12T12:37:33;10.73;;;6.50;;
28070;SDS011;15383;48.408;9.968;2023-09-12T12:39:59;9.02;;;5.20;;
28070;SDS011;15383;48.408;9.968;2023-09-12T12:42:35;9.77;;;6.35;;
28070;SDS011;15383;48.408;9.968;2023-09-12T12:45:13;17.08;;;5.78;;
28070;SDS011;15383;48.408;9.968;2023-09-12T12:47:40;12.30;;;6.50;;
28070;SDS011;15383;48.408;9.968;2023-09-12T12:50:16;12.00;;;7.13;;
28070;SDS011;15383;48.408;9.968;2023-09-12T12:52:46;17.02;;;6.97;;
28070;SDS011;15383;48.408;9.968;2023-09-12T12:55:13;14.77;;;6.47;;
28070;SDS011;15383;48.408;9.968;2023-09-12T12:57:44;13.18;;;6.43;;
28070;SDS011;15383;48.408;9.968;2023-09-12T13:00:13;10.27;;;5.72;;
28070;SDS011;15383;48.408;9.968;2023-09-12T13:02:40;10.57;;;6.03;;
28070;SDS011;15383;48.408;9.968;2023-09-12T13:05:19;17.10;;;6.47;;
28070;SDS011;15383;48.408;9.968;2023-09-12T13:07:46;11.70;;;6.00;;
28070;SDS011;15383;48.408;9.968;2023-09-12T13:10:12;9.63;;;5.38;;
28070;SDS011;15383;48.408;9.968;2023-09-12T13:12:37;10.07;;;5.35;;
28070;SDS011;15383;48.408;9.968;2023-09-12T13:15:04;14.95;;;4.75;;
28070;SDS011;15383;48.408;9.968;2023-09-12T13:17:30;16.38;;;5.85;;
28070;SDS011;15383;48.408;9.968;2023-09-12T13:19:56;7.50;;;5.30;;
28070;SDS011;15383;48.408;9.968;2023-09-12T13:22:21;14.00;;;6.15;;
28070;SDS011;15383;48.408;9.968;2023-09-12T13:24:47;7.85;;;5.22;;
28070;SDS011;15383;48.408;9.968;2023-09-12T13:27:13;12.55;;;6.03;;
28070;SDS011;15383;48.408;9.968;2023-09-12T13:29:39;9.88;;;5.55;;
28070;SDS011;15383;48.408;9.968;2023-09-12T13:32:05;11.35;;;5.90;;
28070;SDS011;15383;48.408;9.968;2023-09-12T13:34:30;12.57;;;6.07;;
28070;SDS011;15383;48.408;9.968;2023-09-12T13:36:56;9.82;;;5.45;;
28070;SDS011;15383;48.408;9.968;2023-09-12T13:39:23;9.07;;;4.95;;
28070;SDS011;15383;48.408;9.968;2023-09-12T13:41:49;7.05;;;5.50;;
28070;SDS011;15383;48.408;9.968;2023-09-12T13:44:15;9.90;;;5.03;;
28070;SDS011;15383;48.408;9.968;2023-09-12T13:46:42;8.45;;;4.90;;
28070;SDS011;15383;48.408;9.968;2023-09-12T13:49:09;11.35;;;5.30;;
28070;SDS011;15383;48.408;9.968;2023-09-12T13:51:35;9.60;;;5.15;;
28070;SDS011;15383;48.408;9.968;2023-09-12T13:54:01;15.68;;;4.55;;
28070;SDS011;15383;48.408;9.968;2023-09-12T13:56:27;7.20;;;5.00;;
28070;SDS011;15383;48.408;9.968;2023-09-12T13:58:53;17.40;;;5.72;;
28070;SDS011;15383;48.408;9.968;2023-09-12T14:01:19;9.65;;;5.53;;
28070;SDS011;15383;48.408;9.968;2023-09-12T14:03:45;11.05;;;4.80;;
28070;SDS011;15383;48.408;9.968;2023-09-12T14:06:11;9.57;;;5.35;;
28070;SDS011;15383;48.408;9.968;2023-09-12T14:08:37;10.57;;;5.90;;
28070;SDS011;15383;48.408;9.968;2023-09-12T14:11:02;9.38;;;5.45;;
28070;SDS011;15383;48.408;9.968;2023-09-12T14:13:28;10.18;;;5.32;;
28070;SDS011;15383;48.408;9.968;2023-09-12T14:15:54;9.88;;;4.68;;
28070;SDS011;15383;48.408;9.968;2023-09-12T14:18:19;8.48;;;5.25;;
28070;SDS011;15383;48.408;9.968;2023-09-12T14:20:45;13.77;;;5.40;;
28070;SDS011;15383;48.408;9.968;2023-09-12T14:23:11;13.35;;;5.47;;
28070;SDS011;15383;48.408;9.968;2023-09-12T14:25:37;9.25;;;5.40;;
28070;SDS011;15383;48.408;9.968;2023-09-12T14:28:03;17.13;;;5.63;;
28070;SDS011;15383;48.408;9.968;2023-09-12T14:30:30;7.88;;;5.22;;
28070;SDS011;15383;48.408;9.968;2023-09-12T14:33:01;9.25;;;5.03;;
28070;SDS011;15383;48.408;9.968;2023-09-12T14:35:27;13.70;;;6.00;;
28070;SDS011;15383;48.408;9.968;2023-09-12T14:37:53;10.35;;;5.00;;
28070;SDS011;15383;48.408;9.968;2023-09-12T14:40:19;11.30;;;5.95;;
28070;SDS011;15383;48.408;9.968;2023-09-12T14:42:45;7.88;;;5.22;;
28070;SDS011;15383;48.408;9.968;2023-09-12T14:45:11;11.13;;;5.43;;
28070;SDS011;15383;48.408;9.968;2023-09-12T14:47:39;12.18;;;5.60;;
28070;SDS011;15383;48.408;9.968;2023-09-12T14:50:04;11.55;;;5.18;;
28070;SDS011;15383;48.408;9.968;2023-09-12T14:52:30;9.07;;;5.13;;
28070;SDS011;15383;48.408;9.968;2023-09-12T14:54:56;14.00;;;5.63;;
28070;SDS011;15383;48.408;9.968;2023-09-12T14:57:23;11.48;;;6.25;;
28070;SDS011;15383;48.408;9.968;2023-09-12T14:59:49;10.77;;;5.40;;
28070;SDS011;15383;48.408;9.968;2023-09-12T15:02:15;16.63;;;5.47;;
28070;SDS011;15383;48.408;9.968;2023-09-12T15:04:41;14.45;;;6.40;;
28070;SDS011;15383;48.408;9.968;2023-09-12T15:07:07;9.38;;;5.05;;
28070;SDS011;15383;48.408;9.968;2023-09-12T15:09:33;10.57;;;5.10;;
28070;SDS011;15383;48.408;9.968;2023-09-12T15:11:59;16.40;;;6.03;;
28070;SDS011;15383;48.408;9.968;2023-09-12T15:14:25;6.57;;;5.05;;
28070;SDS011;15383;48.408;9.968;2023-09-12T15:16:51;8.75;;;5.10;;
28070;SDS011;15383;48.408;9.968;2023-09-12T15:19:16;12.73;;;5.25;;
28070;SDS011;15383;48.408;9.968;2023-09-12T15:21:42;7.95;;;5.25;;
28070;SDS011;15383;48.408;9.968;2023-09-12T15:24:08;13.45;;;5.82;;
28070;SDS011;15383;48.408;9.968;2023-09-12T15:26:34;10.27;;;5.85;;
28070;SDS011;15383;48.408;9.968;2023-09-12T15:28:59;9.25;;;5.75;;
28070;SDS011;15383;48.408;9.968;2023-09-12T15:31:26;11.70;;;5.55;;
28070;SDS011;15383;48.408;9.968;2023-09-12T15:33:56;21.50;;;6.47;;
28070;SDS011;15383;48.408;9.968;2023-09-12T15:36:22;8.23;;;5.50;;
28070;SDS011;15383;48.408;9.968;2023-09-12T15:38:47;9.80;;;5.60;;
28070;SDS011;15383;48.408;9.968;2023-09-12T15:41:14;8.60;;;6.00;;
28070;SDS011;15383;48.408;9.968;2023-09-12T15:43:39;15.02;;;6.80;;
28070;SDS011;15383;48.408;9.968;2023-09-12T15:46:06;14.45;;;5.90;;
28070;SDS011;15383;48.408;9.968;2023-09-12T15:48:32;15.75;;;6.25;;
28070;SDS011;15383;48.408;9.968;2023-09-12T15:50:57;7.32;;;5.20;;
28070;SDS011;15383;48.408;9.968;2023-09-12T15:53:23;9.75;;;5.65;;
28070;SDS011;15383;48.408;9.968;2023-09-12T15:55:49;8.88;;;5.88;;
28070;SDS011;15383;48.408;9.968;2023-09-12T15:58:17;11.82;;;5.80;;
28070;SDS011;15383;48.408;9.968;2023-09-12T16:00:42;15.68;;;5.78;;
28070;SDS011;15383;48.408;9.968;2023-09-12T16:03:09;13.68;;;5.97;;
28070;SDS011;15383;48.408;9.968;2023-09-12T16:05:34;10.55;;;5.90;;
28070;SDS011;15383;48.408;9.968;2023-09-12T16:08:00;17.42;;;5.35;;
28070;SDS011;15383;48.408;9.968;2023-09-12T16:10:25;15.77;;;5.97;;
28070;SDS011;15383;48.408;9.968;2023-09-12T16:12:51;22.25;;;5.78;;
28070;SDS011;15383;48.408;9.968;2023-09-12T16:15:17;19.63;;;5.70;;
28070;SDS011;15383;48.408;9.968;2023-09-12T16:17:42;16.10;;;5.30;;
28070;SDS011;15383;48.408;9.968;2023-09-12T16:20:09;20.50;;;5.43;;
28070;SDS011;15383;48.408;9.968;2023-09-12T16:22:38;19.75;;;6.45;;
28070;SDS011;15383;48.408;9.968;2023-09-12T16:25:05;11.93;;;5.55;;
28070;SDS011;15383;48.408;9.968;2023-09-12T16:27:30;15.75;;;5.43;;
28070;SDS011;15383;48.408;9.968;2023-09-12T16:29:56;13.43;;;6.53;;
28070;SDS011;15383;48.408;9.968;2023-09-12T16:32:22;9.63;;;5.47;;
28070;SDS011;15383;48.408;9.968;2023-09-12T16:34:48;14.85;;;6.10;;
28070;SDS011;15383;48.408;9.968;2023-09-12T16:37:13;10.93;;;5.78;;
28070;SDS011;15383;48.408;9.968;2023-09-12T16:39:39;11.93;;;6.32;;
28070;SDS011;15383;48.408;9.968;2023-09-12T16:42:07;7.55;;;5.10;;
28070;SDS011;15383;48.408;9.968;2023-09-12T16:44:33;23.15;;;5.53;;
28070;SDS011;15383;48.408;9.968;2023-09-12T16:46:59;11.55;;;5.80;;
28070;SDS011;15383;48.408;9.968;2023-09-12T16:49:24;8.73;;;3.33;;
28070;SDS011;15383;48.408;9.968;2023-09-12T16:51:50;13.60;;;4.60;;
28070;SDS011;15383;48.408;9.968;2023-09-12T16:54:15;6.55;;;3.55;;
28070;SDS011;15383;48.408;9.968;2023-09-12T16:56:41;10.10;;;4.03;;
28070;SDS011;15383;48.408;9.968;2023-09-12T16:59:07;9.00;;;3.75;;
28070;SDS011;15383;48.408;9.968;2023-09-12T17:01:32;8.13;;;3.60;;
28070;SDS011;15383;48.408;9.968;2023-09-12T17:03:59;8.68;;;4.32;;
28070;SDS011;15383;48.408;9.968;2023-09-12T17:06:26;7.25;;;3.97;;
28070;SDS011;15383;48.408;9.968;2023-09-12T17:08:54;11.57;;;4.13;;
28070;SDS011;15383;48.408;9.968;2023-09-12T17:11:21;6.68;;;4.10;;
28070;SDS011;15383;48.408;9.968;2023-09-12T17:13:47;11.48;;;4.00;;
28070;SDS011;15383;48.408;9.968;2023-09-12T17:16:13;7.60;;;3.70;;
28070;SDS011;15383;48.408;9.968;2023-09-12T17:18:40;10.52;;;4.07;;
28070;SDS011;15383;48.408;9.968;2023-09-12T17:21:05;7.00;;;3.30;;
28070;SDS011;15383;48.408;9.968;2023-09-12T17:23:31;10.00;;;3.78;;
28070;SDS011;15383;48.408;9.968;2023-09-12T17:25:56;7.57;;;4.07;;
28070;SDS011;15383;48.408;9.968;2023-09-12T17:28:22;7.65;;;3.60;;
28070;SDS011;15383;48.408;9.968;2023-09-12T17:30:48;6.32;;;3.15;;
28070;SDS011;15383;48.408;9.968;2023-09-12T17:33:15;8.77;;;3.63;;
28070;SDS011;15383;48.408;9.968;2023-09-12T17:35:41;4.53;;;3.30;;
28070;SDS011;15383;48.408;9.968;2023-09-12T17:38:06;9.35;;;4.05;;
28070;SDS011;15383;48.408;9.968;2023-09-12T17:40:32;11.45;;;5.03;;
28070;SDS011;15383;48.408;9.968;2023-09-12T17:42:59;9.25;;;4.30;;
28070;SDS011;15383;48.408;9.968;2023-09-12T17:45:24;10.32;;;4.55;;
28070;SDS011;15383;48.408;9.968;2023-09-12T17:47:50;12.43;;;4.38;;
28070;SDS011;15383;48.408;9.968;2023-09-12T17:50:18;9.20;;;3.55;;
28070;SDS011;15383;48.408;9.968;2023-09-12T17:52:46;9.48;;;3.00;;